sensor_id;sensor_type;location;lat;lon;timestamp;pressure;altitude;pressure_sealevel;temperature;humidity
74346;BME280;62776;50.518;6.732;2023-04-03T00:02:33;97571.56;;;3.71;100.00
74346;BME280;62776;50.518;6.732;2023-04-03T00:05:20;97566.31;;;3.68;100.00
74346;BME280;62776;50.518;6.732;2023-04-03T00:08:08;97574.13;;;3.71;100.00
74346;BME280;62776;50.518;6.732;2023-04-03T00:10:55;97569.84;;;3.70;100.00
74346;BME280;62776;50.518;6.732;2023-04-03T00:13:41;97568.13;;;3.71;100.00
74346;BME280;62776;50.518;6.732;2023-04-03T00:16:30;97568.06;;;3.69;100.00
74346;BME280;62776;50.518;6.732;2023-04-03T00:19:16;97566.38;;;3.70;100.00
74346;BME280;62776;50.518;6.732;2023-04-03T00:22:03;97569.72;;;3.67;100.00
74346;BME280;62776;50.518;6.732;2023-04-03T00:24:51;97559.44;;;3.67;100.00
74346;BME280;62776;50.518;6.732;2023-04-03T00:27:41;97561.81;;;3.61;100.00
74346;BME280;62776;50.518;6.732;2023-04-03T00:30:31;97561.91;;;3.64;100.00
74346;BME280;62776;50.518;6.732;2023-04-03T00:33:19;97562.81;;;3.66;100.00
74346;BME280;62776;50.518;6.732;2023-04-03T00:36:09;97556.88;;;3.67;100.00
74346;BME280;62776;50.518;6.732;2023-04-03T00:38:58;97552.66;;;3.69;100.00
74346;BME280;62776;50.518;6.732;2023-04-03T00:41:44;97550.06;;;3.69;100.00
74346;BME280;62776;50.518;6.732;2023-04-03T00:47:31;97552.53;;;3.66;100.00
74346;BME280;62776;50.518;6.732;2023-04-03T00:50:18;97552.66;;;3.69;100.00
74346;BME280;62776;50.518;6.732;2023-04-03T00:53:14;97550.81;;;3.65;100.00
74346;BME280;62776;50.518;6.732;2023-04-03T00:56:06;97546.41;;;3.63;100.00
74346;BME280;62776;50.518;6.732;2023-04-03T00:59:08;97557.59;;;3.63;100.00
74346;BME280;62776;50.518;6.732;2023-04-03T01:02:08;97552.59;;;3.16;100.00
74346;BME280;62776;50.518;6.732;2023-04-03T01:04:55;97550.50;;;3.56;100.00
74346;BME280;62776;50.518;6.732;2023-04-03T01:07:55;97555.34;;;3.47;100.00
74346;BME280;62776;50.518;6.732;2023-04-03T01:10:44;97548.66;;;3.52;100.00
74346;BME280;62776;50.518;6.732;2023-04-03T01:13:32;97545.13;;;3.48;100.00
74346;BME280;62776;50.518;6.732;2023-04-03T01:16:23;97547.59;;;3.45;100.00
74346;BME280;62776;50.518;6.732;2023-04-03T01:19:17;97547.59;;;3.45;100.00
74346;BME280;62776;50.518;6.732;2023-04-03T01:22:20;97543.03;;;3.37;100.00
74346;BME280;62776;50.518;6.732;2023-04-03T01:25:17;97542.38;;;3.44;100.00
74346;BME280;62776;50.518;6.732;2023-04-03T01:28:11;97534.44;;;3.36;100.00
74346;BME280;62776;50.518;6.732;2023-04-03T01:34:07;97539.53;;;3.35;100.00
74346;BME280;62776;50.518;6.732;2023-04-03T01:36:55;97541.34;;;3.37;100.00
74346;BME280;62776;50.518;6.732;2023-04-03T01:39:47;97539.59;;;3.38;100.00
74346;BME280;62776;50.518;6.732;2023-04-03T01:42:38;97538.88;;;3.40;100.00
74346;BME280;62776;50.518;6.732;2023-04-03T01:45:26;97539.59;;;3.38;100.00
74346;BME280;62776;50.518;6.732;2023-04-03T01:48:15;97545.53;;;3.35;100.00
74346;BME280;62776;50.518;6.732;2023-04-03T01:51:05;97545.44;;;3.32;100.00
74346;BME280;62776;50.518;6.732;2023-04-03T01:53:51;97541.78;;;3.26;100.00
74346;BME280;62776;50.518;6.732;2023-04-03T01:56:45;97546.97;;;3.27;100.00
74346;BME280;62776;50.518;6.732;2023-04-03T01:59:41;97545.81;;;3.18;100.00
74346;BME280;62776;50.518;6.732;2023-04-03T02:02:30;97552.63;;;2.68;100.00
74346;BME280;62776;50.518;6.732;2023-04-03T02:05:21;97547.34;;;3.13;100.00
74346;BME280;62776;50.518;6.732;2023-04-03T02:08:07;97541.53;;;3.18;100.00
74346;BME280;62776;50.518;6.732;2023-04-03T02:10:56;97545.63;;;3.13;100.00
74346;BME280;62776;50.518;6.732;2023-04-03T02:13:43;97548.97;;;3.11;100.00
74346;BME280;62776;50.518;6.732;2023-04-03T02:16:33;97548.88;;;3.08;100.00
74346;BME280;62776;50.518;6.732;2023-04-03T02:19:21;97554.03;;;3.08;100.00
74346;BME280;62776;50.518;6.732;2023-04-03T02:22:17;97560.78;;;3.06;100.00
74346;BME280;62776;50.518;6.732;2023-04-03T02:25:06;97563.19;;;3.01;100.00
74346;BME280;62776;50.518;6.732;2023-04-03T02:27:59;97562.22;;;2.97;100.00
74346;BME280;62776;50.518;6.732;2023-04-03T02:30:47;97559.75;;;3.01;100.00
74346;BME280;62776;50.518;6.732;2023-04-03T02:33:33;97562.22;;;2.97;100.00
74346;BME280;62776;50.518;6.732;2023-04-03T02:36:22;97564.75;;;2.96;100.00
74346;BME280;62776;50.518;6.732;2023-04-03T02:39:13;97559.50;;;2.93;100.00
74346;BME280;62776;50.518;6.732;2023-04-03T02:42:00;97555.94;;;2.89;100.00
74346;BME280;62776;50.518;6.732;2023-04-03T02:44:47;97554.09;;;2.85;100.00
74346;BME280;62776;50.518;6.732;2023-04-03T02:47:33;97555.78;;;2.85;100.00
74346;BME280;62776;50.518;6.732;2023-04-03T02:50:20;97552.28;;;2.83;100.00
74346;BME280;62776;50.518;6.732;2023-04-03T02:53:07;97556.47;;;2.81;100.00
74346;BME280;62776;50.518;6.732;2023-04-03T02:55:59;97553.75;;;2.76;100.00
74346;BME280;62776;50.518;6.732;2023-04-03T02:58:59;97553.53;;;2.70;100.00
74346;BME280;62776;50.518;6.732;2023-04-03T03:01:57;97552.63;;;2.68;100.00
74346;BME280;62776;50.518;6.732;2023-04-03T03:04:49;97551.25;;;2.54;100.00
74346;BME280;62776;50.518;6.732;2023-04-03T03:07:42;97554.03;;;2.60;100.00
74346;BME280;62776;50.518;6.732;2023-04-03T03:10:28;97559.06;;;2.57;100.00
74346;BME280;62776;50.518;6.732;2023-04-03T03:13:20;97561.47;;;2.53;100.00
74346;BME280;62776;50.518;6.732;2023-04-03T03:16:08;97554.44;;;2.49;100.00
74346;BME280;62776;50.518;6.732;2023-04-03T03:18:54;97555.44;;;2.52;100.00
74346;BME280;62776;50.518;6.732;2023-04-03T03:21:41;97558.69;;;2.48;100.00
74346;BME280;62776;50.518;6.732;2023-04-03T03:24:32;97550.78;;;2.42;100.00
74346;BME280;62776;50.518;6.732;2023-04-03T03:27:24;97554.88;;;2.37;100.00
74346;BME280;62776;50.518;6.732;2023-04-03T03:30:21;97559.06;;;2.35;100.00
74346;BME280;62776;50.518;6.732;2023-04-03T03:33:08;97561.75;;;2.38;100.00
74346;BME280;62776;50.518;6.732;2023-04-03T03:36:03;97556.63;;;2.38;100.00
74346;BME280;62776;50.518;6.732;2023-04-03T03:38:51;97549.63;;;2.34;100.00
74346;BME280;62776;50.518;6.732;2023-04-03T03:41:37;97560.25;;;2.21;100.00
74346;BME280;62776;50.518;6.732;2023-04-03T03:44:27;97554.75;;;2.12;100.00
74346;BME280;62776;50.518;6.732;2023-04-03T03:47:16;97555.34;;;2.05;100.00
74346;BME280;62776;50.518;6.732;2023-04-03T03:50:03;97561.38;;;2.05;100.00
74346;BME280;62776;50.518;6.732;2023-04-03T03:52:50;97563.97;;;2.07;100.00
74346;BME280;62776;50.518;6.732;2023-04-03T03:55:42;97563.09;;;2.06;100.00
74346;BME280;62776;50.518;6.732;2023-04-03T03:58:29;97570.16;;;2.12;100.00
74346;BME280;62776;50.518;6.732;2023-04-03T04:01:18;97564.16;;;2.11;100.00
74346;BME280;62776;50.518;6.732;2023-04-03T04:04:06;97570.16;;;2.12;100.00
74346;BME280;62776;50.518;6.732;2023-04-03T04:06:55;97560.53;;;2.06;100.00
74346;BME280;62776;50.518;6.732;2023-04-03T04:09:45;97560.06;;;1.94;100.00
74346;BME280;62776;50.518;6.732;2023-04-03T04:12:38;97565.13;;;1.93;100.00
74346;BME280;62776;50.518;6.732;2023-04-03T04:15:31;97555.38;;;1.84;100.00
74346;BME280;62776;50.518;6.732;2023-04-03T04:18:18;97562.78;;;1.76;100.00
74346;BME280;62776;50.518;6.732;2023-04-03T04:21:07;97559.97;;;1.70;100.00
74346;BME280;62776;50.518;6.732;2023-04-03T04:23:56;97563.41;;;1.71;100.00
74346;BME280;62776;50.518;6.732;2023-04-03T04:26:46;97562.94;;;1.59;100.00
74346;BME280;62776;50.518;6.732;2023-04-03T04:29:37;97560.16;;;1.54;100.00
74346;BME280;62776;50.518;6.732;2023-04-03T04:32:24;97557.47;;;1.51;100.00
74346;BME280;62776;50.518;6.732;2023-04-03T04:35:11;97561.75;;;1.51;100.00
74346;BME280;62776;50.518;6.732;2023-04-03T04:38:02;97562.56;;;1.50;100.00
74346;BME280;62776;50.518;6.732;2023-04-03T04:40:51;97560.78;;;1.49;100.00
74346;BME280;62776;50.518;6.732;2023-04-03T04:43:39;97563.31;;;1.47;100.00
74346;BME280;62776;50.518;6.732;2023-04-03T04:46:28;97564.69;;;1.39;100.00
74346;BME280;62776;50.518;6.732;2023-04-03T04:49:19;97566.81;;;1.29;100.00
74346;BME280;62776;50.518;6.732;2023-04-03T04:52:08;97573.47;;;1.25;100.00
74346;BME280;62776;50.518;6.732;2023-04-03T04:54:55;97572.47;;;1.22;100.00
74346;BME280;62776;50.518;6.732;2023-04-03T04:57:54;97574.53;;;1.09;100.00
74346;BME280;62776;50.518;6.732;2023-04-03T05:00:46;97579.25;;;1.00;100.00
74346;BME280;62776;50.518;6.732;2023-04-03T05:03:40;97579.00;;;0.94;100.00
74346;BME280;62776;50.518;6.732;2023-04-03T05:06:18;97589.19;;;0.93;100.00
74346;BME280;62776;50.518;6.732;2023-04-03T05:09:04;97601.09;;;0.92;100.00
74346;BME280;62776;50.518;6.732;2023-04-03T05:11:51;97594.97;;;0.89;100.00
74346;BME280;62776;50.518;6.732;2023-04-03T05:14:37;97605.06;;;0.86;100.00
74346;BME280;62776;50.518;6.732;2023-04-03T05:17:24;97601.44;;;0.81;100.00
74346;BME280;62776;50.518;6.732;2023-04-03T05:20:17;97609.06;;;0.79;100.00
74346;BME280;62776;50.518;6.732;2023-04-03T05:23:03;97604.72;;;0.78;100.00
74346;BME280;62776;50.518;6.732;2023-04-03T05:25:50;97606.41;;;0.78;100.00
74346;BME280;62776;50.518;6.732;2023-04-03T05:28:36;97608.97;;;0.78;100.00
74346;BME280;62776;50.518;6.732;2023-04-03T05:31:23;97613.94;;;0.75;100.00
74346;BME280;62776;50.518;6.732;2023-04-03T05:34:15;97612.22;;;0.74;100.00
74346;BME280;62776;50.518;6.732;2023-04-03T05:37:03;97612.25;;;0.75;100.00
74346;BME280;62776;50.518;6.732;2023-04-03T05:39:51;97620.13;;;0.80;100.00
74346;BME280;62776;50.518;6.732;2023-04-03T05:42:38;97618.47;;;0.80;100.00
74346;BME280;62776;50.518;6.732;2023-04-03T05:45:24;97626.22;;;0.82;100.00
74346;BME280;62776;50.518;6.732;2023-04-03T05:48:13;97630.38;;;0.80;100.00
74346;BME280;62776;50.518;6.732;2023-04-03T05:51:00;97637.44;;;0.85;100.00
74346;BME280;62776;50.518;6.732;2023-04-03T05:53:48;97628.22;;;0.89;100.00
74346;BME280;62776;50.518;6.732;2023-04-03T05:56:41;97623.31;;;0.93;100.00
74346;BME280;62776;50.518;6.732;2023-04-03T05:59:28;97635.38;;;0.96;100.00
74346;BME280;62776;50.518;6.732;2023-04-03T06:02:24;97629.56;;;1.00;100.00
74346;BME280;62776;50.518;6.732;2023-04-03T06:05:11;97634.97;;;1.06;100.00
74346;BME280;62776;50.518;6.732;2023-04-03T06:07:58;97636.97;;;1.13;100.00
74346;BME280;62776;50.518;6.732;2023-04-03T06:10:50;97640.63;;;1.18;100.00
74346;BME280;62776;50.518;6.732;2023-04-03T06:13:38;97636.63;;;1.25;100.00
74346;BME280;62776;50.518;6.732;2023-04-03T06:16:25;97632.56;;;1.30;100.00
74346;BME280;62776;50.518;6.732;2023-04-03T06:19:12;97628.50;;;1.35;100.00
74346;BME280;62776;50.518;6.732;2023-04-03T06:21:58;97632.22;;;1.41;100.00
74346;BME280;62776;50.518;6.732;2023-04-03T06:24:47;97634.97;;;1.46;100.00
74346;BME280;62776;50.518;6.732;2023-04-03T06:27:34;97636.91;;;1.51;100.00
74346;BME280;62776;50.518;6.732;2023-04-03T06:30:21;97639.81;;;1.59;100.00
74346;BME280;62776;50.518;6.732;2023-04-03T06:33:10;97642.69;;;1.66;100.00
74346;BME280;62776;50.518;6.732;2023-04-03T06:36:00;97646.44;;;1.74;100.00
74346;BME280;62776;50.518;6.732;2023-04-03T06:38:55;97650.13;;;1.81;100.00
74346;BME280;62776;50.518;6.732;2023-04-03T06:41:43;97644.38;;;1.87;100.00
74346;BME280;62776;50.518;6.732;2023-04-03T06:44:30;97647.28;;;1.96;100.00
74346;BME280;62776;50.518;6.732;2023-04-03T06:47:17;97651.03;;;2.04;100.00
74346;BME280;62776;50.518;6.732;2023-04-03T06:50:03;97651.41;;;2.13;100.00
74346;BME280;62776;50.518;6.732;2023-04-03T06:52:50;97655.16;;;2.21;100.00
74346;BME280;62776;50.518;6.732;2023-04-03T06:55:46;97659.00;;;2.32;100.00
74346;BME280;62776;50.518;6.732;2023-04-03T06:58:33;97655.03;;;2.40;100.00
74346;BME280;62776;50.518;6.732;2023-04-03T07:01:19;97657.09;;;2.49;100.00
74346;BME280;62776;50.518;6.732;2023-04-03T07:04:07;97653.84;;;2.53;100.00
74346;BME280;62776;50.518;6.732;2023-04-03T07:06:55;97656.81;;;2.63;100.00
74346;BME280;62776;50.518;6.732;2023-04-03T07:09:44;97645.00;;;2.68;100.00
74346;BME280;62776;50.518;6.732;2023-04-03T07:12:33;97653.16;;;2.80;100.00
74346;BME280;62776;50.518;6.732;2023-04-03T07:15:21;97653.34;;;2.85;100.00
74346;BME280;62776;50.518;6.732;2023-04-03T07:18:09;97653.63;;;2.92;100.00
74346;BME280;62776;50.518;6.732;2023-04-03T07:20:57;97647.13;;;3.02;100.00
74346;BME280;62776;50.518;6.732;2023-04-03T07:23:44;97649.84;;;3.07;100.00
74346;BME280;62776;50.518;6.732;2023-04-03T07:26:31;97646.88;;;3.18;100.00
74346;BME280;62776;50.518;6.732;2023-04-03T07:29:17;97646.31;;;3.27;100.00
74346;BME280;62776;50.518;6.732;2023-04-03T07:32:04;97643.16;;;3.35;100.00
74346;BME280;62776;50.518;6.732;2023-04-03T07:38:09;97645.41;;;3.50;100.00
74346;BME280;62776;50.518;6.732;2023-04-03T07:41:11;97636.03;;;3.52;100.00
74346;BME280;62776;50.518;6.732;2023-04-03T07:43:58;97645.09;;;3.66;100.00
74346;BME280;62776;50.518;6.732;2023-04-03T07:46:55;97638.50;;;3.74;100.00
74346;BME280;62776;50.518;6.732;2023-04-03T07:49:41;97635.47;;;3.86;100.00
74346;BME280;62776;50.518;6.732;2023-04-03T07:52:28;97636.72;;;3.98;100.00
74346;BME280;62776;50.518;6.732;2023-04-03T07:55:24;97642.19;;;4.07;100.00
74346;BME280;62776;50.518;6.732;2023-04-03T07:58:20;97639.84;;;4.15;100.00
74346;BME280;62776;50.518;6.732;2023-04-03T08:01:07;97642.78;;;4.26;100.00
74346;BME280;62776;50.518;6.732;2023-04-03T08:03:54;97649.16;;;4.37;100.00
74346;BME280;62776;50.518;6.732;2023-04-03T08:06:43;97645.81;;;4.41;100.00
74346;BME280;62776;50.518;6.732;2023-04-03T08:09:29;97653.88;;;4.51;100.00
74346;BME280;62776;50.518;6.732;2023-04-03T08:12:21;97646.34;;;4.57;100.00
74346;BME280;62776;50.518;6.732;2023-04-03T08:15:08;97650.91;;;4.67;100.00
74346;BME280;62776;50.518;6.732;2023-04-03T08:17:55;97653.78;;;4.76;100.00
74346;BME280;62776;50.518;6.732;2023-04-03T08:20:49;97654.00;;;4.84;100.00
74346;BME280;62776;50.518;6.732;2023-04-03T08:23:42;97664.38;;;4.86;95.93
74346;BME280;62776;50.518;6.732;2023-04-03T08:29:09;97663.97;;;5.02;99.98
74346;BME280;62776;50.518;6.732;2023-04-03T08:31:56;97650.50;;;5.12;99.90
74346;BME280;62776;50.518;6.732;2023-04-03T08:34:58;97658.22;;;4.81;100.00
74346;BME280;62776;50.518;6.732;2023-04-03T08:37:28;97657.91;;;5.29;100.00
74346;BME280;62776;50.518;6.732;2023-04-03T08:40:17;97649.56;;;5.40;95.61
74346;BME280;62776;50.518;6.732;2023-04-03T08:45:49;97653.06;;;5.73;96.71
74346;BME280;62776;50.518;6.732;2023-04-03T08:48:43;97653.22;;;5.79;93.32
74346;BME280;62776;50.518;6.732;2023-04-03T08:51:32;97651.19;;;6.00;91.24
74346;BME280;62776;50.518;6.732;2023-04-03T08:54:50;97656.53;;;6.06;92.58
74346;BME280;62776;50.518;6.732;2023-04-03T09:01:10;97666.16;;;6.13;79.80
74346;BME280;62776;50.518;6.732;2023-04-03T09:04:14;97663.75;;;5.86;79.94
74346;BME280;62776;50.518;6.732;2023-04-03T09:07:17;97667.22;;;5.87;78.11
74346;BME280;62776;50.518;6.732;2023-04-03T09:10:13;97668.09;;;5.87;77.44
74346;BME280;62776;50.518;6.732;2023-04-03T09:13:33;97676.03;;;5.95;83.82
74346;BME280;62776;50.518;6.732;2023-04-03T09:16:33;97674.41;;;5.99;76.33
74346;BME280;62776;50.518;6.732;2023-04-03T09:22:28;97676.81;;;5.92;77.14
74346;BME280;62776;50.518;6.732;2023-04-03T09:25:25;97679.66;;;6.03;74.89
74346;BME280;62776;50.518;6.732;2023-04-03T09:28:14;97678.59;;;6.29;80.19
74346;BME280;62776;50.518;6.732;2023-04-03T09:31:05;97667.19;;;6.56;77.91
74346;BME280;62776;50.518;6.732;2023-04-03T09:34:08;97665.13;;;6.78;76.85
74346;BME280;62776;50.518;6.732;2023-04-03T09:37:04;97665.50;;;6.95;75.85
74346;BME280;62776;50.518;6.732;2023-04-03T09:40:00;97663.06;;;7.02;70.63
74346;BME280;62776;50.518;6.732;2023-04-03T09:43:00;97663.66;;;6.91;71.53
74346;BME280;62776;50.518;6.732;2023-04-03T09:45:48;97663.00;;;6.99;75.40
74346;BME280;62776;50.518;6.732;2023-04-03T09:48:38;97664.75;;;7.02;70.85
74346;BME280;62776;50.518;6.732;2023-04-03T09:51:30;97665.78;;;7.08;66.65
74346;BME280;62776;50.518;6.732;2023-04-03T09:54:37;97663.88;;;7.00;67.53
74346;BME280;62776;50.518;6.732;2023-04-03T09:57:35;97664.47;;;6.88;60.93
74346;BME280;62776;50.518;6.732;2023-04-03T10:00:38;97666.31;;;6.94;62.70
74346;BME280;62776;50.518;6.732;2023-04-03T10:03:44;97668.53;;;6.79;62.87
74346;BME280;62776;50.518;6.732;2023-04-03T10:06:38;97671.34;;;6.88;65.37
74346;BME280;62776;50.518;6.732;2023-04-03T10:09:36;97673.84;;;6.83;62.18
74346;BME280;62776;50.518;6.732;2023-04-03T10:12:26;97669.25;;;6.72;61.33
74346;BME280;62776;50.518;6.732;2023-04-03T10:15:17;97660.72;;;6.74;64.23
74346;BME280;62776;50.518;6.732;2023-04-03T10:18:23;97666.03;;;6.82;67.32
74346;BME280;62776;50.518;6.732;2023-04-03T10:21:39;97669.41;;;6.78;65.27
74346;BME280;62776;50.518;6.732;2023-04-03T10:28:03;97662.81;;;6.53;61.24
74346;BME280;62776;50.518;6.732;2023-04-03T10:34:12;97649.97;;;6.56;65.75
74346;BME280;62776;50.518;6.732;2023-04-03T10:43:20;97647.53;;;7.02;68.69
74346;BME280;62776;50.518;6.732;2023-04-03T10:46:16;97640.69;;;7.06;63.76
74346;BME280;62776;50.518;6.732;2023-04-03T10:49:29;97636.41;;;7.06;63.34
74346;BME280;62776;50.518;6.732;2023-04-03T10:58:44;97633.69;;;7.42;59.94
74346;BME280;62776;50.518;6.732;2023-04-03T11:01:34;97634.94;;;7.64;63.53
74346;BME280;62776;50.518;6.732;2023-04-03T11:04:26;97635.06;;;7.70;58.06
74346;BME280;62776;50.518;6.732;2023-04-03T11:07:26;97628.31;;;7.77;59.74
74346;BME280;62776;50.518;6.732;2023-04-03T11:10:40;97626.44;;;7.69;63.16
74346;BME280;62776;50.518;6.732;2023-04-03T11:13:39;97624.19;;;7.89;64.27
74346;BME280;62776;50.518;6.732;2023-04-03T11:16:33;97627.22;;;8.15;60.23
74346;BME280;62776;50.518;6.732;2023-04-03T11:19:50;97627.28;;;8.18;56.25
74346;BME280;62776;50.518;6.732;2023-04-03T11:22:51;97618.47;;;8.07;57.93
74346;BME280;62776;50.518;6.732;2023-04-03T11:25:41;97613.56;;;8.23;56.74
74346;BME280;62776;50.518;6.732;2023-04-03T11:28:31;97617.28;;;8.41;56.74
74346;BME280;62776;50.518;6.732;2023-04-03T11:34:39;97621.13;;;8.11;52.65
74346;BME280;62776;50.518;6.732;2023-04-03T11:40:29;97610.72;;;8.08;56.77
74346;BME280;62776;50.518;6.732;2023-04-03T11:43:26;97613.56;;;8.23;54.11
74346;BME280;62776;50.518;6.732;2023-04-03T11:46:14;97601.63;;;8.33;52.60
74346;BME280;62776;50.518;6.732;2023-04-03T11:49:02;97604.88;;;8.21;52.95
74346;BME280;62776;50.518;6.732;2023-04-03T11:51:50;97605.88;;;8.28;56.12
74346;BME280;62776;50.518;6.732;2023-04-03T11:54:44;97601.78;;;8.42;54.26
74346;BME280;62776;50.518;6.732;2023-04-03T12:09:57;97588.00;;;8.43;50.00
74346;BME280;62776;50.518;6.732;2023-04-03T12:12:42;97579.50;;;8.53;50.89
74346;BME280;62776;50.518;6.732;2023-04-03T12:15:48;97588.69;;;8.33;46.21
74346;BME280;62776;50.518;6.732;2023-04-03T12:18:57;97576.59;;;8.32;49.03
74346;BME280;62776;50.518;6.732;2023-04-03T12:24:48;97567.38;;;8.52;49.40
74346;BME280;62776;50.518;6.732;2023-04-03T12:27:42;97571.72;;;8.55;50.47
74346;BME280;62776;50.518;6.732;2023-04-03T12:30:37;97571.06;;;8.69;50.24
74346;BME280;62776;50.518;6.732;2023-04-03T12:33:47;97565.78;;;8.63;50.57
74346;BME280;62776;50.518;6.732;2023-04-03T12:37:07;97560.69;;;8.71;52.03
74346;BME280;62776;50.518;6.732;2023-04-03T12:39:59;97559.28;;;8.93;50.59
74346;BME280;62776;50.518;6.732;2023-04-03T12:46:19;97555.94;;;9.03;51.18
74346;BME280;62776;50.518;6.732;2023-04-03T12:49:39;97555.84;;;8.95;50.34
74346;BME280;62776;50.518;6.732;2023-04-03T12:52:38;97568.84;;;9.00;49.37
74346;BME280;62776;50.518;6.732;2023-04-03T12:55:26;97552.50;;;9.04;49.36
74346;BME280;62776;50.518;6.732;2023-04-03T12:58:27;97556.81;;;9.03;49.57
74346;BME280;62776;50.518;6.732;2023-04-03T13:01:21;97557.81;;;9.16;46.71
74346;BME280;62776;50.518;6.732;2023-04-03T13:04:13;97563.75;;;9.07;45.02
74346;BME280;62776;50.518;6.732;2023-04-03T13:06:59;97555.13;;;9.08;47.66
74346;BME280;62776;50.518;6.732;2023-04-03T13:09:56;97553.31;;;9.01;46.20
74346;BME280;62776;50.518;6.732;2023-04-03T13:12:52;97551.63;;;9.03;44.71
74346;BME280;62776;50.518;6.732;2023-04-03T13:15:47;97543.91;;;9.11;47.31
74346;BME280;62776;50.518;6.732;2023-04-03T13:18:36;97550.13;;;9.25;45.53
74346;BME280;62776;50.518;6.732;2023-04-03T13:21:33;97547.53;;;9.25;46.35
74346;BME280;62776;50.518;6.732;2023-04-03T13:24:21;97534.59;;;9.29;43.56
74346;BME280;62776;50.518;6.732;2023-04-03T13:27:12;97546.69;;;9.29;44.77
74346;BME280;62776;50.518;6.732;2023-04-03T13:30:33;97536.28;;;9.26;45.79
74346;BME280;62776;50.518;6.732;2023-04-03T13:33:50;97540.53;;;9.16;44.55
74346;BME280;62776;50.518;6.732;2023-04-03T13:36:44;97545.81;;;9.27;44.14
74346;BME280;62776;50.518;6.732;2023-04-03T13:39:32;97537.09;;;9.19;43.10
74346;BME280;62776;50.518;6.732;2023-04-03T13:42:30;97541.28;;;9.09;43.73
74346;BME280;62776;50.518;6.732;2023-04-03T13:45:21;97531.00;;;9.14;45.11
74346;BME280;62776;50.518;6.732;2023-04-03T13:48:18;97534.44;;;9.13;44.33
74346;BME280;62776;50.518;6.732;2023-04-03T13:51:28;97534.50;;;9.19;46.99
74346;BME280;62776;50.518;6.732;2023-04-03T13:54:36;97525.09;;;9.30;47.55
74346;BME280;62776;50.518;6.732;2023-04-03T13:57:29;97514.03;;;9.49;47.33
74346;BME280;62776;50.518;6.732;2023-04-03T14:03:53;97522.91;;;9.74;43.15
74346;BME280;62776;50.518;6.732;2023-04-03T14:06:40;97508.75;;;10.50;45.42
74346;BME280;62776;50.518;6.732;2023-04-03T14:09:28;97502.13;;;11.34;42.73
74346;BME280;62776;50.518;6.732;2023-04-03T14:12:26;97503.88;;;12.31;42.03
74346;BME280;62776;50.518;6.732;2023-04-03T14:15:32;97493.13;;;13.19;39.45
74346;BME280;62776;50.518;6.732;2023-04-03T14:18:20;97496.28;;;13.73;38.49
74346;BME280;62776;50.518;6.732;2023-04-03T14:21:11;97499.28;;;14.23;37.04
74346;BME280;62776;50.518;6.732;2023-04-03T14:23:58;97513.06;;;14.46;32.12
74346;BME280;62776;50.518;6.732;2023-04-03T14:26:45;97504.00;;;14.76;33.47
74346;BME280;62776;50.518;6.732;2023-04-03T14:29:32;97500.03;;;15.15;31.18
74346;BME280;62776;50.518;6.732;2023-04-03T14:32:20;97503.63;;;15.70;32.12
74346;BME280;62776;50.518;6.732;2023-04-03T14:35:09;97502.91;;;16.14;30.76
74346;BME280;62776;50.518;6.732;2023-04-03T14:38:20;97493.19;;;16.68;29.75
74346;BME280;62776;50.518;6.732;2023-04-03T14:41:07;97491.41;;;16.70;27.82
74346;BME280;62776;50.518;6.732;2023-04-03T14:44:01;97490.53;;;16.71;27.98
74346;BME280;62776;50.518;6.732;2023-04-03T14:46:49;97485.06;;;17.23;29.06
74346;BME280;62776;50.518;6.732;2023-04-03T14:49:50;97478.44;;;17.45;26.99
74346;BME280;62776;50.518;6.732;2023-04-03T14:52:38;97474.56;;;17.63;29.20
74346;BME280;62776;50.518;6.732;2023-04-03T14:55:29;97466.13;;;18.19;28.61
74346;BME280;62776;50.518;6.732;2023-04-03T14:58:21;97470.09;;;18.36;27.12
74346;BME280;62776;50.518;6.732;2023-04-03T15:01:12;97476.94;;;18.43;27.12
74346;BME280;62776;50.518;6.732;2023-04-03T15:04:05;97475.38;;;18.00;28.14
74346;BME280;62776;50.518;6.732;2023-04-03T15:06:51;97479.97;;;15.76;30.82
74346;BME280;62776;50.518;6.732;2023-04-03T15:09:39;97481.97;;;14.13;34.40
74346;BME280;62776;50.518;6.732;2023-04-03T15:12:26;97474.91;;;13.06;33.11
74346;BME280;62776;50.518;6.732;2023-04-03T15:15:16;97475.88;;;12.88;35.99
74346;BME280;62776;50.518;6.732;2023-04-03T15:18:04;97482.72;;;14.27;34.06
74346;BME280;62776;50.518;6.732;2023-04-03T15:20:53;97481.69;;;13.41;34.01
74346;BME280;62776;50.518;6.732;2023-04-03T15:23:39;97485.66;;;12.12;35.62
74346;BME280;62776;50.518;6.732;2023-04-03T15:26:28;97489.13;;;11.68;35.79
74346;BME280;62776;50.518;6.732;2023-04-03T15:29:14;97488.19;;;11.13;37.71
74346;BME280;62776;50.518;6.732;2023-04-03T15:32:07;97484.56;;;10.60;40.24
74346;BME280;62776;50.518;6.732;2023-04-03T15:35:03;97479.97;;;10.17;40.29
74346;BME280;62776;50.518;6.732;2023-04-03T15:37:50;97487.56;;;9.91;41.05
74346;BME280;62776;50.518;6.732;2023-04-03T15:40:44;97489.13;;;9.71;41.24
74346;BME280;62776;50.518;6.732;2023-04-03T15:43:32;97492.84;;;10.03;39.93
74346;BME280;62776;50.518;6.732;2023-04-03T15:46:19;97483.03;;;9.63;39.93
74346;BME280;62776;50.518;6.732;2023-04-03T15:49:06;97488.84;;;9.36;40.59
74346;BME280;62776;50.518;6.732;2023-04-03T15:51:53;97484.41;;;9.26;40.51
74346;BME280;62776;50.518;6.732;2023-04-03T15:54:40;97488.50;;;9.03;42.16
74346;BME280;62776;50.518;6.732;2023-04-03T15:57:28;97486.53;;;8.80;42.50
74346;BME280;62776;50.518;6.732;2023-04-03T16:00:16;97485.56;;;8.74;42.90
74346;BME280;62776;50.518;6.732;2023-04-03T16:03:15;97488.00;;;8.60;43.35
74346;BME280;62776;50.518;6.732;2023-04-03T16:06:08;97485.41;;;8.60;44.13
74346;BME280;62776;50.518;6.732;2023-04-03T16:08:55;97493.22;;;8.63;42.84
74346;BME280;62776;50.518;6.732;2023-04-03T16:11:50;97488.66;;;8.44;44.22
74346;BME280;62776;50.518;6.732;2023-04-03T16:14:38;97491.91;;;8.29;43.83
74346;BME280;62776;50.518;6.732;2023-04-03T16:17:26;97488.28;;;8.17;44.59
74346;BME280;62776;50.518;6.732;2023-04-03T16:20:14;97500.16;;;8.03;44.57
74346;BME280;62776;50.518;6.732;2023-04-03T16:23:14;97497.34;;;7.88;47.07
74346;BME280;62776;50.518;6.732;2023-04-03T16:26:02;97495.44;;;7.78;44.94